Time;durP1;ratioP1;P1;durP2;ratioP2;P2;SDS_P1;SDS_P2;PMS_P1;PMS_P2;Temp;Humidity;BMP_temperature;BMP_pressure;BME280_temperature;BME280_humidity;BME280_pressure;Samples;Min_cycle;Max_cycle;Signal;HPM_P1;HPM_P2
2022/05/18 00:00:35;;;;;;;1.05;0.25;;;22.20;82.90;;;;;;5035121;28;20075;-72
2022/05/18 00:03:09;;;;;;;0.80;0.35;;;22.40;84.40;;;;;;5044291;28;20795;-71
2022/05/18 00:05:39;;;;;;;1.00;0.65;;;22.80;84.30;;;;;;5038966;28;20060;-71
2022/05/18 00:08:08;;;;;;;1.65;0.20;;;23.00;81.80;;;;;;5033177;28;20040;-71
2022/05/18 00:10:38;;;;;;;1.17;0.28;;;23.30;83.40;;;;;;5043843;28;20043;-71
2022/05/18 00:13:07;;;;;;;2.25;0.38;;;23.90;81.80;;;;;;5050344;28;20029;-71
2022/05/18 00:15:35;;;;;;;2.95;0.60;;;24.20;79.90;;;;;;5040759;28;20033;-71
2022/05/18 00:18:02;;;;;;;1.00;0.30;;;24.30;82.50;;;;;;5050883;28;20017;-72
2022/05/18 00:20:30;;;;;;;4.90;0.93;;;24.50;79.60;;;;;;5035566;28;20519;-71
2022/05/18 00:23:01;;;;;;;1.80;0.40;;;24.50;78.30;;;;;;5045562;28;20025;-72
2022/05/18 00:25:34;;;;;;;2.20;0.20;;;24.50;77.80;;;;;;5035600;28;20067;-71
2022/05/18 00:28:02;;;;;;;1.50;0.40;;;24.70;78.10;;;;;;5049650;28;20025;-71
2022/05/18 00:30:31;;;;;;;1.23;0.28;;;24.90;76.20;;;;;;5042115;28;20135;-71
2022/05/18 00:33:03;;;;;;;2.17;0.47;;;24.90;76.40;;;;;;5033209;28;20056;-72
2022/05/18 00:35:31;;;;;;;1.10;0.25;;;24.60;76.90;;;;;;5038951;28;20120;-72
2022/05/18 00:38:00;;;;;;;2.08;0.50;;;25.00;75.30;;;;;;5050765;28;20032;-69
2022/05/18 00:40:27;;;;;;;2.38;0.32;;;25.00;75.70;;;;;;5046511;28;20147;-70
2022/05/18 00:42:55;;;;;;;1.33;0.75;;;25.30;75.50;;;;;;5049765;28;20108;-72
2022/05/18 00:45:22;;;;;;;0.50;0.25;;;25.40;76.00;;;;;;5036366;28;20540;-70
2022/05/18 00:47:50;;;;;;;0.20;0.20;;;25.00;74.20;;;;;;5049146;28;20088;-70
2022/05/18 00:50:36;;;;;;;0.98;0.20;;;25.20;74.30;;;;;;5046869;28;20037;-70
2022/05/18 00:53:15;;;;;;;0.88;0.20;;;25.40;74.20;;;;;;5046233;28;20037;-73
2022/05/18 00:55:49;;;;;;;0.65;0.30;;;25.40;73.60;;;;;;5033529;28;20047;-71
2022/05/18 00:58:38;;;;;;;3.17;0.35;;;25.50;73.10;;;;;;5029793;28;20109;-70
2022/05/18 01:01:07;;;;;;;1.25;0.17;;;25.80;75.40;;;;;;5045256;28;20355;-70
2022/05/18 01:03:48;;;;;;;1.73;0.30;;;26.50;73.10;;;;;;5040383;28;20483;-70
2022/05/18 01:06:40;;;;;;;1.27;0.40;;;26.70;73.50;;;;;;5037963;28;20033;-70
2022/05/18 01:09:36;;;;;;;1.58;0.20;;;26.30;72.50;;;;;;5033993;28;20032;-70
2022/05/18 01:12:05;;;;;;;1.55;0.22;;;26.00;74.30;;;;;;5034639;28;20029;-69
2022/05/18 01:14:44;;;;;;;1.92;0.30;;;26.20;73.40;;;;;;5029943;28;20033;-70
2022/05/18 01:17:14;;;;;;;1.33;0.30;;;26.50;74.00;;;;;;5030571;28;20053;-70
2022/05/18 01:19:53;;;;;;;1.30;0.30;;;26.80;73.40;;;;;;5028733;28;20021;-69
2022/05/18 01:22:38;;;;;;;0.77;0.30;;;27.50;71.70;;;;;;5032368;28;20053;-70
2022/05/18 01:25:11;;;;;;;1.38;0.43;;;27.70;72.30;;;;;;5035494;28;20032;-69
2022/05/18 01:27:39;;;;;;;2.70;0.63;;;27.50;70.90;;;;;;5034364;28;20167;-70
2022/05/18 01:30:07;;;;;;;2.70;0.40;;;27.50;70.50;;;;;;5037955;28;20041;-69
2022/05/18 01:32:45;;;;;;;1.33;0.35;;;27.40;70.70;;;;;;5032688;28;20024;-71
2022/05/18 01:35:20;;;;;;;2.15;0.50;;;27.20;72.00;;;;;;5037112;28;20036;-70
2022/05/18 01:37:48;;;;;;;0.75;0.10;;;26.60;71.40;;;;;;5038887;28;20104;-70
2022/05/18 01:41:09;;;;;;;2.15;0.30;;;26.50;70.80;;;;;;5041212;28;20029;-70
2022/05/18 01:43:51;;;;;;;2.03;0.60;;;26.10;72.20;;;;;;5031362;28;20067;-71
2022/05/18 01:46:20;;;;;;;1.92;0.40;;;26.00;73.10;;;;;;5039629;28;20029;-70
2022/05/18 01:48:51;;;;;;;3.67;0.38;;;25.80;72.30;;;;;;5046174;28;20077;-71
2022/05/18 01:51:47;;;;;;;1.45;0.40;;;26.20;73.80;;;;;;5046673;28;20389;-70
2022/05/18 01:54:15;;;;;;;2.25;0.22;;;25.90;72.60;;;;;;5049093;28;20167;-71
2022/05/18 01:56:43;;;;;;;0.32;0.20;;;26.30;72.90;;;;;;5053698;28;20044;-73
2022/05/18 01:59:11;;;;;;;0.82;0.30;;;26.60;73.40;;;;;;5046089;28;20030;-71
2022/05/18 02:01:39;;;;;;;1.52;0.35;;;26.50;71.40;;;;;;5033955;28;20503;-70
2022/05/18 02:04:06;;;;;;;1.23;0.22;;;25.90;73.00;;;;;;5032825;28;20074;-73
2022/05/18 02:06:35;;;;;;;0.20;0.20;;;26.00;73.70;;;;;;5041503;28;20064;-71
2022/05/18 02:09:04;;;;;;;0.70;0.10;;;25.80;72.40;;;;;;5049504;28;20025;-71
2022/05/18 02:11:35;;;;;;;0.90;0.30;;;26.00;71.60;;;;;;5043758;28;20029;-70
2022/05/18 02:14:02;;;;;;;0.47;0.20;;;26.40;72.30;;;;;;5038902;28;20060;-71
2022/05/18 02:16:30;;;;;;;1.73;0.35;;;26.80;70.60;;;;;;5032569;28;20884;-70
2022/05/18 02:18:57;;;;;;;1.13;0.40;;;26.90;73.10;;;;;;5032815;28;20068;-71
2022/05/18 02:21:24;;;;;;;1.83;0.40;;;27.10;72.50;;;;;;5035526;28;20101;-70
2022/05/18 02:23:52;;;;;;;4.90;0.70;;;26.80;72.10;;;;;;5032030;28;20068;-70
2022/05/18 02:26:21;;;;;;;2.97;0.50;;;26.50;73.30;;;;;;5039401;28;20541;-71
2022/05/18 02:28:49;;;;;;;3.20;0.30;;;26.50;72.00;;;;;;5032997;28;20068;-71
2022/05/18 02:31:16;;;;;;;1.50;0.30;;;25.70;72.50;;;;;;5047053;28;20049;-72
2022/05/18 02:33:44;;;;;;;0.68;0.30;;;25.80;74.60;;;;;;5043274;28;20021;-70
2022/05/18 02:36:12;;;;;;;1.88;0.20;;;26.10;74.80;;;;;;5048536;28;20234;-71
2022/05/18 02:38:41;;;;;;;2.08;0.22;;;26.30;73.50;;;;;;5051456;28;20444;-71
2022/05/18 02:41:09;;;;;;;2.05;0.28;;;26.40;73.00;;;;;;5040841;28;20383;-71
2022/05/18 02:43:40;;;;;;;0.77;0.20;;;26.30;71.80;;;;;;5045449;28;20424;-71
2022/05/18 02:46:16;;;;;;;1.27;0.40;;;26.20;71.80;;;;;;5039376;28;20029;-71
2022/05/18 02:48:45;;;;;;;1.23;0.35;;;26.10;73.30;;;;;;5036219;28;20053;-71
2022/05/18 02:51:16;;;;;;;2.30;0.40;;;26.00;72.60;;;;;;5029547;28;20033;-72
2022/05/18 02:53:43;;;;;;;0.88;0.32;;;25.40;72.10;;;;;;5032398;28;20036;-71
2022/05/18 02:56:14;;;;;;;1.05;0.30;;;25.20;74.60;;;;;;5046190;28;20154;-70
2022/05/18 02:58:46;;;;;;;0.95;0.30;;;25.00;74.80;;;;;;5047971;28;20382;-70
2022/05/18 03:01:19;;;;;;;1.20;0.40;;;24.90;74.30;;;;;;5035039;28;20472;-71
2022/05/18 03:03:46;;;;;;;0.65;0.20;;;24.50;75.00;;;;;;5047741;28;20541;-70
2022/05/18 03:06:16;;;;;;;1.50;0.25;;;24.40;75.70;;;;;;5032738;28;20055;-71
2022/05/18 03:08:44;;;;;;;1.00;0.40;;;24.60;77.90;;;;;;5033610;28;20046;-70
2022/05/18 03:11:13;;;;;;;0.40;0.20;;;24.70;74.40;;;;;;5042240;28;20100;-70
2022/05/18 03:13:41;;;;;;;1.27;0.30;;;24.90;73.90;;;;;;5032839;28;20033;-71
2022/05/18 03:16:08;;;;;;;3.78;0.22;;;25.00;75.20;;;;;;5031281;28;20025;-70
2022/05/18 03:18:36;;;;;;;1.23;0.25;;;24.70;76.00;;;;;;5033519;28;20109;-71
2022/05/18 03:23:49;;;;;;;0.38;0.20;;;24.60;78.00;;;;;;5030546;28;20091;-71
2022/05/18 03:26:19;;;;;;;1.98;0.70;;;24.20;76.10;;;;;;5030359;28;20036;-70
2022/05/18 03:28:48;;;;;;;3.58;0.47;;;23.80;76.80;;;;;;5032371;28;20028;-71
2022/05/18 03:31:16;;;;;;;0.35;0.20;;;23.30;77.40;;;;;;5040433;28;20044;-72
2022/05/18 03:33:45;;;;;;;1.40;0.17;;;22.80;77.10;;;;;;5045737;28;20383;-71
2022/05/18 03:36:15;;;;;;;1.23;0.20;;;22.50;76.80;;;;;;5049526;28;20135;-71
2022/05/18 03:38:44;;;;;;;2.67;0.30;;;22.30;78.90;;;;;;5049646;28;20025;-71
2022/05/18 03:41:11;;;;;;;2.22;0.20;;;21.90;79.70;;;;;;5042155;28;20021;-72
2022/05/18 03:43:39;;;;;;;0.85;0.45;;;21.40;78.60;;;;;;5034052;28;22824;-71
2022/05/18 03:46:07;;;;;;;0.95;0.13;;;21.20;80.40;;;;;;5042136;28;20491;-71
2022/05/18 03:48:35;;;;;;;0.32;0.17;;;21.10;81.30;;;;;;5040123;28;20076;-73
2022/05/18 03:51:04;;;;;;;0.20;0.17;;;21.10;80.90;;;;;;5043652;28;20044;-71
2022/05/18 03:53:31;;;;;;;0.85;0.45;;;21.00;81.30;;;;;;5031441;28;20108;-71
2022/05/18 03:56:00;;;;;;;0.57;0.20;;;20.90;81.80;;;;;;5047219;28;20158;-72
2022/05/18 03:58:27;;;;;;;1.85;0.22;;;20.80;81.50;;;;;;5046767;28;20025;-71
2022/05/18 04:00:58;;;;;;;0.40;0.10;;;21.00;82.40;;;;;;5038052;28;20029;-72
2022/05/18 04:03:27;;;;;;;1.30;0.15;;;21.00;80.60;;;;;;5039902;28;20116;-72
2022/05/18 04:05:55;;;;;;;1.25;0.35;;;21.00;79.90;;;;;;5032668;28;20028;-72
2022/05/18 04:08:23;;;;;;;1.38;0.10;;;20.90;81.30;;;;;;5030850;28;20717;-72
2022/05/18 04:10:50;;;;;;;0.20;0.00;;;20.80;80.80;;;;;;5036684;28;20037;-72
2022/05/18 04:13:21;;;;;;;0.15;0.13;;;20.80;81.30;;;;;;5036174;28;20025;-73
2022/05/18 04:15:49;;;;;;;0.38;0.20;;;20.70;80.40;;;;;;5038537;28;20037;-72
2022/05/18 04:18:16;;;;;;;0.10;0.10;;;20.60;81.30;;;;;;5032163;28;20021;-71
2022/05/18 04:20:45;;;;;;;1.25;0.28;;;20.60;81.40;;;;;;5033286;28;20034;-72
2022/05/18 04:23:13;;;;;;;0.98;0.10;;;20.40;81.00;;;;;;5044980;28;20112;-72
2022/05/18 04:25:41;;;;;;;0.60;0.10;;;20.30;81.40;;;;;;5036976;28;20029;-71
2022/05/18 04:28:13;;;;;;;0.70;0.40;;;20.20;82.00;;;;;;5041881;28;20040;-72
2022/05/18 04:30:43;;;;;;;0.80;0.52;;;20.10;81.40;;;;;;5042443;28;20047;-72
2022/05/18 04:33:13;;;;;;;3.17;0.20;;;20.10;82.10;;;;;;5041743;28;20054;-72
2022/05/18 04:35:40;;;;;;;1.35;0.20;;;20.00;81.90;;;;;;5032333;28;20047;-72
2022/05/18 04:38:08;;;;;;;0.85;0.10;;;20.00;82.60;;;;;;5031326;28;20036;-72
2022/05/18 04:40:35;;;;;;;0.40;0.03;;;20.00;82.20;;;;;;5047788;28;20039;-72
2022/05/18 04:43:03;;;;;;;2.67;0.40;;;19.90;82.90;;;;;;5050607;28;20036;-72
2022/05/18 04:45:30;;;;;;;0.98;0.30;;;19.90;83.70;;;;;;5047655;28;20029;-72
2022/05/18 04:47:58;;;;;;;0.90;0.10;;;19.90;83.60;;;;;;5049266;28;20519;-72
2022/05/18 04:50:25;;;;;;;1.40;0.15;;;19.90;83.20;;;;;;5047117;28;20094;-72
2022/05/18 04:52:52;;;;;;;0.10;0.00;;;19.80;83.40;;;;;;5050439;28;20468;-72
2022/05/18 04:55:20;;;;;;;1.77;0.13;;;19.80;83.50;;;;;;5046506;28;20037;-71
2022/05/18 04:57:47;;;;;;;0.22;0.22;;;19.70;83.60;;;;;;5040191;28;20021;-72
2022/05/18 05:00:15;;;;;;;2.22;0.20;;;19.60;83.70;;;;;;5031740;28;20037;-72
2022/05/18 05:02:43;;;;;;;1.13;0.10;;;19.60;83.80;;;;;;5040979;28;20033;-72
2022/05/18 05:05:13;;;;;;;0.57;0.10;;;19.70;84.50;;;;;;5048935;28;20033;-72
2022/05/18 05:07:40;;;;;;;2.25;0.10;;;19.70;84.70;;;;;;5046005;28;20033;-72
2022/05/18 05:10:08;;;;;;;1.10;0.20;;;19.80;84.50;;;;;;5043321;28;20064;-72
2022/05/18 05:12:35;;;;;;;0.10;0.00;;;19.90;84.80;;;;;;5048651;28;20033;-72
2022/05/18 05:15:03;;;;;;;0.55;0.10;;;19.90;85.50;;;;;;5047090;28;20467;-72
2022/05/18 05:17:30;;;;;;;4.40;0.30;;;20.00;85.20;;;;;;5049209;28;20029;-72
2022/05/18 05:19:59;;;;;;;0.82;0.10;;;20.00;85.30;;;;;;5040145;28;20150;-72
2022/05/18 05:22:26;;;;;;;0.70;0.30;;;20.00;85.00;;;;;;5042033;28;20392;-73
2022/05/18 05:24:54;;;;;;;0.68;0.10;;;19.90;84.10;;;;;;5039055;28;20040;-72
2022/05/18 05:27:21;;;;;;;0.65;0.10;;;19.90;84.20;;;;;;5050106;28;20048;-72
2022/05/18 05:29:49;;;;;;;1.13;0.15;;;19.80;84.10;;;;;;5037140;28;20041;-72
2022/05/18 05:32:16;;;;;;;0.88;0.20;;;19.80;84.40;;;;;;5042201;28;20025;-71
2022/05/18 05:34:45;;;;;;;0.95;0.10;;;19.80;84.20;;;;;;5037403;28;20029;-72
2022/05/18 05:37:12;;;;;;;1.13;0.10;;;19.70;84.10;;;;;;5038756;28;20033;-72
2022/05/18 05:39:40;;;;;;;0.70;0.20;;;19.80;84.20;;;;;;5041777;28;20037;-71
2022/05/18 05:42:08;;;;;;;0.75;0.10;;;19.80;84.30;;;;;;5048171;28;20036;-72
2022/05/18 05:44:35;;;;;;;0.15;0.10;;;19.90;84.70;;;;;;5046878;28;20035;-71
2022/05/18 05:47:03;;;;;;;0.20;0.10;;;20.00;84.00;;;;;;5029503;28;20036;-71
2022/05/18 05:49:31;;;;;;;0.90;0.20;;;20.10;83.40;;;;;;5032500;28;20041;-71
2022/05/18 05:51:58;;;;;;;1.00;0.10;;;20.20;83.30;;;;;;5049806;28;20486;-71
2022/05/18 05:54:29;;;;;;;1.13;0.10;;;20.20;83.10;;;;;;5044575;28;20057;-71
2022/05/18 05:56:56;;;;;;;0.10;0.10;;;20.20;83.60;;;;;;5029746;28;20116;-71
2022/05/18 05:59:23;;;;;;;0.10;0.10;;;20.20;82.60;;;;;;5029623;28;20025;-71
2022/05/18 06:01:51;;;;;;;3.47;0.17;;;20.20;82.80;;;;;;5030752;28;20060;-71
2022/05/18 06:04:18;;;;;;;0.75;0.40;;;20.20;83.10;;;;;;5031959;28;20040;-72
2022/05/18 06:06:46;;;;;;;0.75;0.40;;;20.20;83.00;;;;;;5048779;28;20032;-71
2022/05/18 06:09:13;;;;;;;1.40;0.20;;;20.20;82.60;;;;;;5050441;28;20045;-71
2022/05/18 06:11:40;;;;;;;3.67;0.20;;;20.20;83.60;;;;;;5053413;28;20378;-71
2022/05/18 06:14:07;;;;;;;0.68;0.15;;;20.20;83.70;;;;;;5047858;28;20036;-71
2022/05/18 06:16:35;;;;;;;0.68;0.20;;;20.20;83.60;;;;;;5049044;28;20029;-71
2022/05/18 06:19:02;;;;;;;1.15;0.17;;;20.20;83.50;;;;;;5043258;28;20025;-71
2022/05/18 06:21:30;;;;;;;0.88;0.30;;;19.90;82.50;;;;;;5031162;28;20097;-71
2022/05/18 06:23:57;;;;;;;1.48;0.40;;;19.70;82.90;;;;;;5033611;28;20040;-71
2022/05/18 06:26:26;;;;;;;1.75;0.22;;;19.40;83.30;;;;;;5043642;28;20024;-70
2022/05/18 06:28:54;;;;;;;1.20;0.10;;;19.30;83.80;;;;;;5040049;28;20047;-71
2022/05/18 06:31:22;;;;;;;0.20;0.08;;;19.10;84.30;;;;;;5037555;28;20029;-71
2022/05/18 06:33:50;;;;;;;2.55;0.10;;;19.10;84.20;;;;;;5049776;28;20525;-71
2022/05/18 06:36:17;;;;;;;0.30;0.10;;;19.00;84.10;;;;;;5047320;28;20073;-71
2022/05/18 06:38:44;;;;;;;2.38;0.10;;;19.00;83.70;;;;;;5051146;28;20025;-70
2022/05/18 06:41:24;;;;;;;1.27;0.10;;;18.90;84.20;;;;;;5047067;28;20136;-71
2022/05/18 06:43:58;;;;;;;0.43;0.30;;;18.70;84.90;;;;;;5032220;28;20518;-71
2022/05/18 06:46:27;;;;;;;1.35;0.30;;;18.60;85.10;;;;;;5052137;28;20043;-71
2022/05/18 06:48:56;;;;;;;1.00;0.25;;;18.50;85.10;;;;;;5051386;28;20041;-71
2022/05/18 06:51:28;;;;;;;0.75;0.10;;;18.40;85.50;;;;;;5049283;28;20120;-72
2022/05/18 06:53:57;;;;;;;0.20;0.13;;;18.20;85.20;;;;;;5042382;28;20026;-71
2022/05/18 06:56:28;;;;;;;0.30;0.10;;;18.10;85.70;;;;;;5037860;28;20040;-72
2022/05/18 06:58:56;;;;;;;2.28;0.10;;;18.00;86.10;;;;;;5051531;28;20534;-72
2022/05/18 07:01:24;;;;;;;0.38;0.13;;;17.90;86.40;;;;;;5050121;28;20388;-72
2022/05/18 07:03:52;;;;;;;1.65;0.32;;;17.70;87.20;;;;;;5052310;28;20037;-72
2022/05/18 07:06:23;;;;;;;1.70;0.28;;;17.60;87.00;;;;;;5051589;28;20033;-72
2022/05/18 07:08:52;;;;;;;0.63;0.20;;;17.50;87.80;;;;;;5050810;28;20041;-72
2022/05/18 07:11:20;;;;;;;1.38;0.10;;;17.30;89.00;;;;;;5049331;28;20427;-72
2022/05/18 07:13:51;;;;;;;0.68;0.40;;;17.20;88.60;;;;;;5042892;28;20064;-72
2022/05/18 07:16:19;;;;;;;2.38;0.40;;;17.10;89.90;;;;;;5042023;28;20033;-72
2022/05/18 07:18:47;;;;;;;1.95;0.40;;;17.00;89.50;;;;;;5032973;28;20091;-72
2022/05/18 07:21:16;;;;;;;8.27;4.28;;;16.90;89.70;;;;;;5042226;28;20390;-72
2022/05/18 07:23:43;;;;;;;1.02;0.93;;;16.80;89.90;;;;;;5034379;28;20057;-72
2022/05/18 07:26:11;;;;;;;0.70;0.30;;;16.80;89.90;;;;;;5036995;28;20039;-71
2022/05/18 07:28:39;;;;;;;0.65;0.40;;;16.70;90.00;;;;;;5033374;28;20034;-71
2022/05/18 07:31:07;;;;;;;2.20;0.40;;;16.60;89.20;;;;;;5047408;28;20041;-71
2022/05/18 07:33:35;;;;;;;3.60;0.52;;;16.50;88.60;;;;;;5052247;28;20025;-71
2022/05/18 07:36:05;;;;;;;0.77;0.40;;;16.50;88.40;;;;;;5034626;28;20133;-71
2022/05/18 07:38:34;;;;;;;0.57;0.30;;;16.50;88.60;;;;;;5042698;28;20043;-72
2022/05/18 07:41:02;;;;;;;0.70;0.28;;;16.60;88.80;;;;;;5051781;28;20032;-72
2022/05/18 07:43:30;;;;;;;0.57;0.30;;;16.60;88.70;;;;;;5046416;28;20064;-72
2022/05/18 07:45:57;;;;;;;3.78;0.63;;;16.50;88.20;;;;;;5032459;28;20530;-72
2022/05/18 07:48:26;;;;;;;0.40;0.20;;;16.50;89.20;;;;;;5032102;28;20045;-72
2022/05/18 07:50:53;;;;;;;0.22;0.20;;;16.40;89.30;;;;;;5037761;28;20037;-72
2022/05/18 07:53:21;;;;;;;0.70;0.20;;;16.40;89.50;;;;;;5039044;28;20029;-72
2022/05/18 07:55:49;;;;;;;0.57;0.20;;;16.30;90.20;;;;;;5046408;28;20033;-72
2022/05/18 07:58:18;;;;;;;3.88;0.40;;;16.20;90.60;;;;;;5039288;28;20087;-73
2022/05/18 08:00:46;;;;;;;0.45;0.32;;;16.10;90.80;;;;;;5028310;28;20026;-73
2022/05/18 08:03:15;;;;;;;0.55;0.30;;;16.00;91.30;;;;;;5031031;28;20043;-73
2022/05/18 08:05:44;;;;;;;0.60;0.30;;;15.90;91.20;;;;;;5029060;28;20033;-72
2022/05/18 08:08:20;;;;;;;1.38;0.40;;;15.80;91.60;;;;;;5030292;28;20029;-71
2022/05/18 08:16:19;;;;;;;0.68;0.55;;;15.90;92.50;;;;;;5033392;28;20044;-73
2022/05/18 08:18:49;;;;;;;2.20;0.57;;;15.90;92.70;;;;;;5040802;28;20404;-73
2022/05/18 08:21:17;;;;;;;0.95;0.60;;;16.00;92.00;;;;;;5044025;28;20034;-72
2022/05/18 08:23:45;;;;;;;2.30;1.00;;;16.00;92.30;;;;;;5040149;28;20131;-72
2022/05/18 08:26:12;;;;;;;2.10;1.23;;;16.00;92.60;;;;;;5035606;28;20518;-71
2022/05/18 08:28:40;;;;;;;2.53;1.00;;;16.00;92.90;;;;;;5044505;28;20025;-72
2022/05/18 08:31:07;;;;;;;4.47;1.48;;;15.90;92.60;;;;;;5035536;28;20107;-71
2022/05/18 08:33:35;;;;;;;2.08;0.90;;;16.00;91.90;;;;;;5037872;28;20028;-71
2022/05/18 08:36:09;;;;;;;3.35;0.93;;;16.00;92.30;;;;;;5032099;28;20484;-72
2022/05/18 08:38:36;;;;;;;2.65;1.20;;;16.00;92.60;;;;;;5039557;28;20475;-72
2022/05/18 08:41:13;;;;;;;2.45;1.38;;;16.10;91.90;;;;;;5039988;28;20396;-71
2022/05/18 08:43:45;;;;;;;4.60;1.92;;;16.10;91.30;;;;;;5028818;28;20430;-73
2022/05/18 08:46:33;;;;;;;9.57;3.17;;;16.10;91.90;;;;;;5039205;28;20037;-72
2022/05/18 08:49:04;;;;;;;2.58;1.17;;;16.10;91.40;;;;;;5036469;28;20110;-71
2022/05/18 08:51:31;;;;;;;2.83;1.25;;;16.20;91.10;;;;;;5029869;28;20038;-72
2022/05/18 08:54:44;;;;;;;3.78;0.90;;;16.20;90.90;;;;;;5030503;28;20515;-73
2022/05/18 08:57:27;;;;;;;3.92;0.82;;;16.10;90.70;;;;;;5021749;28;20033;-73
2022/05/18 09:00:00;;;;;;;1.02;0.43;;;16.00;90.70;;;;;;5036133;28;20038;-74
2022/05/18 09:02:32;;;;;;;3.53;0.60;;;16.00;90.50;;;;;;5030690;28;20033;-74
2022/05/18 09:05:04;;;;;;;4.57;0.60;;;15.90;90.70;;;;;;5037998;28;20440;-73
2022/05/18 09:07:41;;;;;;;1.05;0.50;;;15.80;90.80;;;;;;5030618;28;20072;-72
2022/05/18 09:10:22;;;;;;;1.35;0.55;;;15.70;90.90;;;;;;5046431;28;20047;-73
2022/05/18 09:12:50;;;;;;;1.10;0.50;;;15.70;90.80;;;;;;5034980;28;20083;-73
2022/05/18 09:15:34;;;;;;;1.42;0.70;;;15.60;91.10;;;;;;5028633;28;20484;-74
2022/05/18 09:18:26;;;;;;;0.95;0.38;;;15.60;91.20;;;;;;5046395;28;20033;-72
2022/05/18 09:21:23;;;;;;;1.20;0.68;;;15.50;91.50;;;;;;5019481;28;20124;-74
2022/05/18 09:24:11;;;;;;;0.70;0.43;;;15.40;91.60;;;;;;5029720;28;20043;-74
2022/05/18 09:27:15;;;;;;;0.55;0.30;;;15.30;91.70;;;;;;5033945;28;20033;-74
2022/05/18 09:29:47;;;;;;;0.75;0.40;;;15.30;91.60;;;;;;5035576;28;20429;-74
2022/05/18 09:32:37;;;;;;;2.17;0.68;;;15.20;92.70;;;;;;5032510;28;20050;-75
2022/05/18 09:35:04;;;;;;;2.63;0.35;;;15.10;92.70;;;;;;5041260;28;20040;-72
2022/05/18 09:37:47;;;;;;;0.43;0.20;;;14.90;92.70;;;;;;5047429;28;20112;-72
2022/05/18 09:40:36;;;;;;;2.15;0.20;;;14.90;93.00;;;;;;5036566;28;20133;-72
2022/05/18 09:43:14;;;;;;;2.65;0.28;;;14.80;93.20;;;;;;5032851;28;20099;-72
2022/05/18 09:45:47;;;;;;;0.68;0.20;;;14.70;93.70;;;;;;5034664;28;20454;-73
2022/05/18 09:48:16;;;;;;;0.13;0.13;;;14.70;94.00;;;;;;5038437;28;20507;-73
2022/05/18 09:50:47;;;;;;;0.93;0.17;;;14.60;94.10;;;;;;5035684;28;20496;-71
2022/05/18 09:53:16;;;;;;;1.92;0.20;;;14.50;94.20;;;;;;5050684;28;20025;-73
2022/05/18 09:55:48;;;;;;;0.65;0.30;;;14.40;94.40;;;;;;5039343;28;20399;-73
2022/05/18 09:58:41;;;;;;;2.38;0.38;;;14.40;94.40;;;;;;5032647;28;20025;-72
2022/05/18 10:07:28;;;;;;;0.98;0.20;;;14.20;94.60;;;;;;5044696;28;20067;-72
2022/05/18 10:10:01;;;;;;;1.65;0.40;;;14.20;94.40;;;;;;5044614;28;20072;-71
2022/05/18 10:12:59;;;;;;;0.22;0.17;;;14.20;94.50;;;;;;5034917;28;22474;-72
2022/05/18 10:15:26;;;;;;;1.98;0.20;;;14.30;94.60;;;;;;5034505;28;20033;-72
2022/05/18 10:17:57;;;;;;;0.63;0.20;;;14.20;94.60;;;;;;5032985;28;20042;-72
2022/05/18 10:21:01;;;;;;;0.63;0.28;;;14.20;94.60;;;;;;5033750;28;20652;-72
2022/05/18 10:23:47;;;;;;;0.93;0.60;;;14.10;94.60;;;;;;5039486;28;20065;-72
2022/05/18 10:26:37;;;;;;;0.73;0.32;;;14.10;94.60;;;;;;5031853;28;20013;-72
2022/05/18 10:29:19;;;;;;;0.22;0.10;;;14.00;95.00;;;;;;5031281;28;20388;-72
2022/05/18 10:32:09;;;;;;;0.35;0.22;;;13.90;95.10;;;;;;5046540;28;20083;-72
2022/05/18 10:34:49;;;;;;;0.73;0.20;;;13.80;95.20;;;;;;5038267;28;20020;-72
2022/05/18 10:37:27;;;;;;;1.33;0.63;;;13.70;95.30;;;;;;5042338;28;20029;-73
2022/05/18 10:40:04;;;;;;;1.10;0.55;;;13.70;95.50;;;;;;5045601;28;20391;-72
2022/05/18 10:42:49;;;;;;;0.70;0.30;;;13.60;95.50;;;;;;5049302;28;20321;-74
2022/05/18 10:45:28;;;;;;;0.38;0.20;;;13.60;95.70;;;;;;5042503;28;20055;-72
2022/05/18 10:48:02;;;;;;;1.65;0.20;;;13.40;95.30;;;;;;5051029;28;20132;-71
2022/05/18 10:50:37;;;;;;;0.20;0.10;;;13.40;95.00;;;;;;5045905;28;20049;-73
2022/05/18 10:53:16;;;;;;;1.58;0.20;;;13.40;95.00;;;;;;5050396;28;20060;-72
2022/05/18 10:56:00;;;;;;;4.47;0.98;;;13.40;94.90;;;;;;5038592;28;20079;-72
2022/05/18 10:58:35;;;;;;;0.63;0.25;;;13.40;95.00;;;;;;5048871;28;20037;-72
2022/05/18 11:01:17;;;;;;;1.92;0.20;;;13.40;95.00;;;;;;5044330;28;20503;-72
2022/05/18 11:04:10;;;;;;;0.20;0.10;;;13.30;94.80;;;;;;5051296;28;20025;-72
2022/05/18 11:06:40;;;;;;;0.15;0.15;;;13.30;94.80;;;;;;5034641;28;20018;-72
2022/05/18 11:09:22;;;;;;;0.60;0.30;;;13.40;95.10;;;;;;5036797;28;20021;-71
2022/05/18 11:12:10;;;;;;;0.38;0.20;;;13.30;95.00;;;;;;5039590;28;20025;-72
2022/05/18 11:14:47;;;;;;;0.85;0.28;;;13.20;95.20;;;;;;5046414;28;20507;-71
2022/05/18 11:17:37;;;;;;;0.73;0.30;;;13.20;95.10;;;;;;5040504;28;20029;-72
2022/05/18 11:20:25;;;;;;;1.65;0.35;;;13.20;95.10;;;;;;5039468;28;20082;-71
2022/05/18 11:23:08;;;;;;;0.70;0.30;;;13.20;95.30;;;;;;5035234;28;20032;-71
2022/05/18 11:26:16;;;;;;;0.55;0.10;;;13.10;95.30;;;;;;5049865;28;20061;-71
2022/05/18 11:29:13;;;;;;;0.77;0.40;;;13.10;95.30;;;;;;5030796;28;20044;-72
2022/05/18 11:31:43;;;;;;;0.10;0.10;;;13.10;95.50;;;;;;5038014;28;20392;-73
2022/05/18 11:34:40;;;;;;;0.85;0.20;;;13.00;95.40;;;;;;5039306;28;20143;-73
2022/05/18 11:37:34;;;;;;;0.98;0.00;;;13.00;95.70;;;;;;5041562;28;20025;-73
2022/05/18 11:40:29;;;;;;;0.65;0.10;;;12.90;96.00;;;;;;5044480;28;20037;-72
2022/05/18 11:43:33;;;;;;;0.35;0.35;;;12.80;96.00;;;;;;5044880;28;20032;-73
2022/05/18 11:46:20;;;;;;;0.80;0.20;;;12.80;96.10;;;;;;5035822;28;20033;-72
2022/05/18 11:49:12;;;;;;;0.68;0.22;;;12.70;95.80;;;;;;5050960;28;20076;-72
2022/05/18 11:51:45;;;;;;;1.77;0.40;;;12.60;96.10;;;;;;5032028;28;20109;-73
2022/05/18 11:54:30;;;;;;;0.82;0.40;;;12.60;96.10;;;;;;5039781;28;20130;-73
2022/05/18 11:57:38;;;;;;;1.77;0.43;;;12.50;96.40;;;;;;5035435;28;20483;-73
2022/05/18 12:03:13;;;;;;;1.00;0.40;;;12.30;97.20;;;;;;5035416;28;20029;-72
2022/05/18 12:05:50;;;;;;;0.68;0.25;;;12.20;97.10;;;;;;5034531;28;20029;-73
2022/05/18 12:08:52;;;;;;;0.52;0.20;;;12.10;97.50;;;;;;5031558;28;20435;-74
2022/05/18 12:11:31;;;;;;;0.52;0.20;;;12.10;97.10;;;;;;5034057;28;20122;-73
2022/05/18 12:14:10;;;;;;;2.13;0.20;;;12.10;97.20;;;;;;5029079;28;20041;-72
2022/05/18 12:16:46;;;;;;;0.35;0.20;;;12.10;97.00;;;;;;5043388;28;20039;-73
2022/05/18 12:19:22;;;;;;;0.40;0.20;;;12.10;97.00;;;;;;5031893;28;20475;-73
2022/05/18 12:21:56;;;;;;;0.28;0.20;;;12.10;97.10;;;;;;5031425;28;20044;-73
2022/05/18 12:24:26;;;;;;;0.45;0.10;;;12.10;97.40;;;;;;5028875;28;20026;-72
2022/05/18 12:26:55;;;;;;;0.75;0.20;;;12.10;97.20;;;;;;5033445;28;20127;-72
2022/05/18 12:29:26;;;;;;;0.80;0.75;;;12.10;96.40;;;;;;5029329;28;20099;-73
2022/05/18 12:31:56;;;;;;;0.32;0.28;;;12.10;96.00;;;;;;5027219;28;20170;-73
2022/05/18 12:34:39;;;;;;;0.22;0.20;;;12.20;95.80;;;;;;5029749;28;20021;-72
2022/05/18 12:37:15;;;;;;;1.90;0.38;;;12.20;95.70;;;;;;5027858;28;20029;-73
2022/05/18 12:40:03;;;;;;;0.22;0.20;;;12.20;95.70;;;;;;5030951;28;20130;-72
2022/05/18 12:42:34;;;;;;;0.50;0.40;;;12.20;95.60;;;;;;5030814;28;20250;-72
2022/05/18 12:45:34;;;;;;;2.75;0.40;;;12.20;95.40;;;;;;5029942;28;20072;-73
2022/05/18 12:48:13;;;;;;;1.00;0.32;;;12.10;95.60;;;;;;5029038;28;20100;-72
2022/05/18 12:50:43;;;;;;;1.23;0.30;;;12.00;95.70;;;;;;5031132;28;20041;-73
2022/05/18 12:53:19;;;;;;;0.25;0.25;;;12.00;95.70;;;;;;5032350;28;20107;-73
2022/05/18 12:56:06;;;;;;;1.10;0.25;;;12.00;95.70;;;;;;5032813;28;20569;-72
2022/05/18 12:58:37;;;;;;;0.35;0.17;;;12.00;95.80;;;;;;5044373;28;20483;-72
2022/05/18 13:01:12;;;;;;;2.17;0.57;;;12.00;95.90;;;;;;5042260;28;20033;-73
2022/05/18 13:03:54;;;;;;;0.50;0.25;;;12.00;95.70;;;;;;5032676;28;20084;-72
2022/05/18 13:06:36;;;;;;;1.95;0.30;;;12.00;95.60;;;;;;5037646;28;20045;-72
2022/05/18 13:09:27;;;;;;;1.75;0.52;;;11.90;95.60;;;;;;5039724;28;20025;-72
2022/05/18 13:12:19;;;;;;;0.65;0.35;;;11.90;95.70;;;;;;5031337;28;20068;-72
2022/05/18 13:15:03;;;;;;;0.85;0.30;;;12.00;95.70;;;;;;5025658;28;20029;-72
2022/05/18 13:17:52;;;;;;;2.08;1.38;;;11.90;95.70;;;;;;5046295;28;20029;-72
2022/05/18 13:20:31;;;;;;;1.95;0.40;;;11.80;96.00;;;;;;5036407;28;20057;-72
2022/05/18 13:23:10;;;;;;;2.65;0.60;;;11.70;96.30;;;;;;5052294;28;20116;-72
2022/05/18 13:25:43;;;;;;;2.42;0.50;;;11.70;96.70;;;;;;5034132;28;20029;-72
2022/05/18 13:28:13;;;;;;;1.05;0.32;;;11.50;96.90;;;;;;5035714;28;20108;-72
2022/05/18 13:30:50;;;;;;;1.42;0.40;;;11.50;97.30;;;;;;5040925;28;20048;-73
2022/05/18 13:33:18;;;;;;;2.08;0.40;;;11.40;97.50;;;;;;5034437;28;20024;-73
2022/05/18 13:35:49;;;;;;;1.40;0.50;;;11.30;97.80;;;;;;5035979;28;20091;-73
2022/05/18 13:38:26;;;;;;;1.15;0.75;;;11.30;98.10;;;;;;5050496;28;20025;-73